createdAt,value
2022-11-15T00:05:00.895Z,85.84
2022-11-15T00:15:05.402Z,85.94
2022-11-15T00:25:08.770Z,85.97
2022-11-15T00:35:12.721Z,86.20
2022-11-15T00:45:15.391Z,86.67
2022-11-15T00:55:20.821Z,86.86
2022-11-15T01:05:23.566Z,86.98
2022-11-15T01:15:27.586Z,86.92
2022-11-15T01:25:30.328Z,87.22
2022-11-15T01:35:34.266Z,87.44
2022-11-15T01:45:37.016Z,87.93
2022-11-15T01:55:41.018Z,88.03
2022-11-15T02:05:45.138Z,88.26
2022-11-15T02:16:02.964Z,87.73
2022-11-15T02:26:30.370Z,87.84
2022-11-15T02:36:43.866Z,87.74
2022-11-15T02:47:10.887Z,87.41
2022-11-15T02:57:18.421Z,87.63
2022-11-15T03:07:26.592Z,87.51
2022-11-15T03:17:32.951Z,87.35
2022-11-15T03:27:39.924Z,87.22
2022-11-15T03:37:48.862Z,86.90
2022-11-15T03:47:56.711Z,86.58
2022-11-15T03:58:02.361Z,87.10
2022-11-15T04:08:05.578Z,87.26
2022-11-15T04:18:09.605Z,87.52
2022-11-15T04:28:12.774Z,88.24
2022-11-15T04:38:16.768Z,88.17
2022-11-15T04:48:19.419Z,88.28
2022-11-15T04:58:23.378Z,88.07
2022-11-15T05:08:26.169Z,88.54
2022-11-15T05:18:30.161Z,89.00
2022-11-15T05:28:32.925Z,89.33
2022-11-15T05:38:36.859Z,89.61
2022-11-15T05:48:43.859Z,89.86
2022-11-15T05:58:48.025Z,89.94
2022-11-15T06:08:50.622Z,90.04
2022-11-15T06:18:54.635Z,90.14
2022-11-15T06:28:57.218Z,90.53
2022-11-15T06:39:01.359Z,90.38
2022-11-15T06:49:09.383Z,90.35
2022-11-15T06:59:13.959Z,90.20
2022-11-15T07:09:16.839Z,90.11
2022-11-15T07:19:20.836Z,89.77
2022-11-15T07:29:23.441Z,89.38
2022-11-15T07:39:27.426Z,89.16
2022-11-15T07:49:30.045Z,89.37
2022-11-15T07:59:34.006Z,89.18
2022-11-15T08:09:36.634Z,89.04
2022-11-15T08:19:40.578Z,88.91
2022-11-15T08:29:44.593Z,88.60
2022-11-15T08:39:48.607Z,88.92
2022-11-15T08:49:51.241Z,88.85
2022-11-15T08:59:55.629Z,88.47
2022-11-15T09:09:58.229Z,88.64
2022-11-15T09:20:02.222Z,88.54
2022-11-15T09:30:05.966Z,88.56
2022-11-15T09:40:13.243Z,88.58
2022-11-15T09:50:19.686Z,89.07
2022-11-15T10:00:45.779Z,89.27
2022-11-15T10:11:04.999Z,90.38
2022-11-15T10:21:19.751Z,92.24
2022-11-15T10:31:28.816Z,91.73
2022-11-15T10:41:37.092Z,92.66
2022-11-15T10:51:44.898Z,93.36
2022-11-15T11:01:50.026Z,92.88
2022-11-15T11:11:53.964Z,92.39
2022-11-15T11:22:06.452Z,90.73
2022-11-15T11:32:24.930Z,91.46
2022-11-15T11:42:41.657Z,90.66
2022-11-15T11:52:54.028Z,90.60
2022-11-15T12:03:09.973Z,89.60
2022-11-15T12:13:18.537Z,83.81
2022-11-15T12:23:29.630Z,67.39
2022-11-15T12:33:34.966Z,73.60
2022-11-15T12:43:42.248Z,77.22
2022-11-15T12:53:44.936Z,69.79
2022-11-15T13:04:23.854Z,67.78
2022-11-15T13:14:47.694Z,66.24
2022-11-15T13:24:51.665Z,71.67
2022-11-15T13:34:54.627Z,71.61
2022-11-15T13:45:00.449Z,71.73
2022-11-15T13:55:08.502Z,69.61
2022-11-15T14:05:18.880Z,69.58
2022-11-15T14:15:29.693Z,71.04
2022-11-15T14:25:34.725Z,72.20
2022-11-15T14:35:40.809Z,73.86
2022-11-15T14:45:44.893Z,74.79
2022-11-15T14:55:47.533Z,75.86
2022-11-15T15:05:51.609Z,76.79
2022-11-15T15:15:54.374Z,77.59
2022-11-15T15:25:59.094Z,78.11
2022-11-15T15:36:01.888Z,78.96
2022-11-15T15:46:06.815Z,79.46
2022-11-15T15:56:10.855Z,80.04
2022-11-15T16:06:37.398Z,80.52
2022-11-15T16:16:40.058Z,80.67
2022-11-15T16:26:44.091Z,80.96
2022-11-15T16:36:46.908Z,81.28
2022-11-15T16:46:51.880Z,81.30
2022-11-15T16:56:54.625Z,81.24
2022-11-15T17:06:58.745Z,81.27
2022-11-15T17:17:01.586Z,81.32
2022-11-15T17:27:05.594Z,81.30
2022-11-15T17:37:08.458Z,81.52
2022-11-15T17:47:12.438Z,81.68
2022-11-15T17:57:15.035Z,82.17
2022-11-15T18:07:19.155Z,82.26
2022-11-15T18:17:21.860Z,82.75
2022-11-15T18:27:25.873Z,82.81
2022-11-15T18:37:28.552Z,83.06
2022-11-15T18:47:32.587Z,83.75
2022-11-15T18:57:35.295Z,83.88
2022-11-15T19:07:39.462Z,83.81
2022-11-15T19:17:42.111Z,83.68
2022-11-15T19:27:46.086Z,83.79
2022-11-15T19:37:48.710Z,83.75
2022-11-15T19:47:52.781Z,83.68
2022-11-15T19:57:55.400Z,83.90
2022-11-15T20:07:59.379Z,83.99
2022-11-15T20:18:01.969Z,84.30
2022-11-15T20:28:06.546Z,85.13
2022-11-15T20:38:09.472Z,84.85
2022-11-15T20:48:14.695Z,84.83
2022-11-15T20:58:18.654Z,84.55
2022-11-15T21:08:22.657Z,84.78
2022-11-15T21:18:25.538Z,84.80
2022-11-15T21:28:29.537Z,84.39
2022-11-15T21:38:32.416Z,84.43
2022-11-15T21:48:37.105Z,84.47
2022-11-15T21:58:40.510Z,84.45
2022-11-15T22:08:44.799Z,84.46
2022-11-15T22:18:47.876Z,83.60
2022-11-15T22:28:52.068Z,83.63
2022-11-15T22:38:55.106Z,83.64
2022-11-15T22:49:03.158Z,83.56
2022-11-15T22:59:06.287Z,83.71
2022-11-15T23:09:10.851Z,84.49
2022-11-15T23:19:13.938Z,85.88
2022-11-15T23:29:20.782Z,86.50
2022-11-15T23:39:23.991Z,87.98
2022-11-15T23:49:28.448Z,88.09
2022-11-15T23:59:31.150Z,89.23
